createdAt,value
2023-01-18T00:01:20.534Z,15.35
2023-01-18T00:03:47.638Z,22.38
2023-01-18T00:06:15.109Z,12.10
2023-01-18T00:08:42.661Z,19.23
2023-01-18T00:11:15.686Z,11.60
2023-01-18T00:13:43.383Z,15.57
2023-01-18T00:16:19.099Z,18.27
2023-01-18T00:18:54.413Z,15.90
2023-01-18T00:21:21.605Z,18.63
2023-01-18T00:23:48.528Z,16.15
2023-01-18T00:26:15.788Z,20.77
2023-01-18T00:28:43.257Z,16.27
2023-01-18T00:31:16.350Z,16.50
2023-01-18T00:33:44.397Z,25.48
2023-01-18T00:36:12.452Z,22.48
2023-01-18T00:38:39.718Z,26.45
2023-01-18T00:41:06.667Z,26.65
2023-01-18T00:43:39.358Z,21.67
2023-01-18T00:46:10.497Z,19.63
2023-01-18T00:48:41.470Z,14.02
2023-01-18T00:51:11.162Z,19.45
2023-01-18T00:53:38.838Z,21.35
2023-01-18T00:56:10.966Z,15.38
2023-01-18T00:58:38.148Z,12.70
2023-01-18T01:01:07.218Z,25.30
2023-01-18T01:03:54.663Z,13.65
2023-01-18T01:06:45.783Z,22.10
2023-01-18T01:09:23.619Z,16.70
2023-01-18T01:12:10.339Z,9.90
2023-01-18T01:15:01.723Z,16.40
2023-01-18T01:17:48.629Z,16.00
2023-01-18T01:20:34.436Z,19.05
2023-01-18T01:23:40.496Z,19.10
2023-01-18T01:26:09.316Z,24.67
2023-01-18T01:28:45.492Z,25.02
2023-01-18T01:31:15.108Z,23.55
2023-01-18T01:33:42.424Z,21.75
2023-01-18T01:36:12.800Z,17.27
2023-01-18T01:38:41.518Z,17.23
2023-01-18T01:41:11.603Z,20.90
2023-01-18T01:43:51.411Z,16.17
2023-01-18T01:46:30.056Z,24.73
2023-01-18T01:49:12.691Z,24.10
2023-01-18T01:51:43.236Z,17.20
2023-01-18T01:54:23.985Z,21.00
2023-01-18T01:56:55.122Z,22.88
2023-01-18T01:59:22.283Z,18.77
2023-01-18T02:01:49.870Z,10.60
2023-01-18T02:04:17.090Z,19.75
2023-01-18T02:06:43.947Z,18.52
2023-01-18T02:09:15.847Z,19.55
2023-01-18T02:11:43.647Z,17.70
2023-01-18T02:14:16.766Z,14.23
2023-01-18T02:16:55.461Z,19.83
2023-01-18T02:19:47.198Z,24.25
2023-01-18T02:22:34.797Z,16.52
2023-01-18T02:25:39.368Z,17.75
2023-01-18T02:28:18.161Z,20.98
2023-01-18T02:30:53.561Z,16.25
2023-01-18T02:33:28.157Z,14.10
2023-01-18T02:36:03.212Z,18.10
2023-01-18T02:38:44.405Z,31.63
2023-01-18T02:41:16.983Z,14.60
2023-01-18T02:44:07.630Z,23.70
2023-01-18T02:46:35.235Z,23.83
2023-01-18T02:49:18.933Z,14.65
2023-01-18T02:51:45.854Z,18.55
2023-01-18T02:54:13.447Z,15.52
2023-01-18T02:56:45.349Z,17.23
2023-01-18T02:59:14.258Z,22.30
2023-01-18T03:02:10.123Z,17.67
2023-01-18T03:04:54.478Z,17.45
2023-01-18T03:07:28.824Z,22.50
2023-01-18T03:09:57.989Z,17.60
2023-01-18T03:12:48.240Z,19.48
2023-01-18T03:15:17.753Z,19.60
2023-01-18T03:17:47.113Z,15.70
2023-01-18T03:20:18.575Z,19.50
2023-01-18T03:23:10.035Z,19.58
2023-01-18T03:25:41.435Z,18.08
2023-01-18T03:28:32.577Z,28.70
2023-01-18T03:31:21.832Z,26.40
2023-01-18T03:33:55.107Z,15.57
2023-01-18T03:36:37.002Z,25.70
2023-01-18T03:39:09.219Z,17.35
2023-01-18T03:41:40.676Z,22.25
2023-01-18T03:44:35.803Z,17.65
2023-01-18T03:47:05.583Z,15.90
2023-01-18T03:49:34.634Z,19.52
2023-01-18T03:52:10.388Z,21.85
2023-01-18T03:54:44.852Z,16.60
2023-01-18T03:57:34.875Z,22.70
2023-01-18T04:00:06.096Z,20.58
2023-01-18T04:02:39.823Z,16.30
2023-01-18T04:05:07.424Z,26.55
2023-01-18T04:07:34.295Z,29.98
2023-01-18T04:10:01.750Z,20.92
2023-01-18T04:12:28.936Z,25.58
2023-01-18T04:14:55.872Z,29.35
2023-01-18T04:17:22.850Z,20.38
2023-01-18T04:19:49.791Z,21.48
2023-01-18T04:22:16.998Z,20.63
2023-01-18T04:24:43.918Z,17.15
2023-01-18T04:27:11.181Z,19.45
2023-01-18T04:29:38.146Z,22.73
2023-01-18T04:32:06.088Z,30.38
2023-01-18T04:34:33.970Z,31.92
2023-01-18T04:37:01.234Z,21.77
2023-01-18T04:39:28.435Z,23.67
2023-01-18T04:41:57.131Z,20.52
2023-01-18T04:44:24.273Z,21.05
2023-01-18T04:46:51.486Z,12.55
2023-01-18T04:49:18.462Z,27.92
2023-01-18T04:51:46.607Z,30.63
2023-01-18T04:54:17.568Z,26.92
2023-01-18T04:56:44.758Z,22.38
2023-01-18T04:59:17.452Z,22.80
2023-01-18T05:01:44.430Z,12.10
2023-01-18T05:04:11.329Z,22.65
2023-01-18T05:06:38.286Z,22.45
2023-01-18T05:09:05.301Z,17.77
2023-01-18T05:11:32.175Z,19.55
2023-01-18T05:13:59.141Z,17.63
2023-01-18T05:16:26.090Z,21.25
2023-01-18T05:18:52.986Z,18.42
2023-01-18T05:21:20.301Z,24.30
2023-01-18T05:23:47.303Z,22.88
2023-01-18T05:26:22.807Z,22.90
2023-01-18T05:28:50.958Z,20.13
2023-01-18T05:31:21.424Z,16.17
2023-01-18T05:33:48.974Z,20.35
2023-01-18T05:36:15.973Z,21.17
2023-01-18T05:38:42.848Z,25.75
2023-01-18T05:41:09.754Z,25.48
2023-01-18T05:43:38.307Z,21.33
2023-01-18T05:46:05.679Z,21.85
2023-01-18T05:48:32.616Z,21.15
2023-01-18T05:50:59.679Z,25.83
2023-01-18T05:53:26.654Z,21.55
2023-01-18T05:56:01.961Z,18.40
2023-01-18T05:58:29.369Z,17.52
2023-01-18T06:00:56.785Z,19.38
2023-01-18T06:03:25.285Z,19.63
2023-01-18T06:05:52.526Z,22.48
2023-01-18T06:08:20.240Z,31.63
2023-01-18T06:10:54.456Z,28.30
2023-01-18T06:13:22.872Z,16.95
2023-01-18T06:15:49.879Z,17.55
2023-01-18T06:18:16.745Z,27.45
2023-01-18T06:20:44.216Z,22.13
2023-01-18T06:23:11.116Z,20.60
2023-01-18T06:25:38.261Z,30.10
2023-01-18T06:28:05.436Z,24.65
2023-01-18T06:30:34.574Z,19.42
2023-01-18T06:33:07.084Z,21.20
2023-01-18T06:35:34.659Z,19.70
2023-01-18T06:38:02.808Z,22.88
2023-01-18T06:40:30.453Z,14.87
2023-01-18T06:42:57.806Z,25.00
2023-01-18T06:45:26.045Z,21.55
2023-01-18T06:47:53.461Z,28.00
2023-01-18T06:50:20.611Z,25.15
2023-01-18T06:52:47.770Z,16.55
2023-01-18T06:55:15.725Z,14.38
2023-01-18T06:57:42.953Z,19.70
2023-01-18T07:00:12.051Z,21.25
2023-01-18T07:02:39.039Z,21.55
2023-01-18T07:05:06.745Z,20.73
2023-01-18T07:07:33.820Z,20.10
2023-01-18T07:10:00.697Z,29.38
2023-01-18T07:12:27.761Z,16.88
2023-01-18T07:14:54.727Z,14.20
2023-01-18T07:17:21.654Z,16.20
2023-01-18T07:19:48.682Z,17.20
2023-01-18T07:22:15.531Z,27.10
2023-01-18T07:24:42.453Z,27.65
2023-01-18T07:27:09.381Z,18.33
2023-01-18T07:29:36.457Z,20.48
2023-01-18T07:32:03.540Z,23.00
2023-01-18T07:34:30.745Z,23.90
2023-01-18T07:36:57.843Z,23.77
2023-01-18T07:39:24.808Z,13.57
2023-01-18T07:41:51.771Z,26.73
2023-01-18T07:44:18.874Z,18.38
2023-01-18T07:46:45.894Z,24.95
2023-01-18T07:49:12.859Z,21.98
2023-01-18T07:51:39.934Z,22.25
2023-01-18T07:54:07.527Z,22.83
2023-01-18T07:56:34.523Z,21.10
2023-01-18T07:59:01.348Z,15.77
2023-01-18T08:01:28.939Z,29.48
2023-01-18T08:03:55.874Z,21.88
2023-01-18T08:06:25.170Z,26.23
2023-01-18T08:08:54.112Z,30.48
2023-01-18T08:11:21.277Z,20.05
2023-01-18T08:13:49.458Z,18.30
2023-01-18T08:16:16.657Z,25.30
2023-01-18T08:18:45.638Z,17.20
2023-01-18T08:21:13.632Z,19.85
2023-01-18T08:23:41.186Z,19.45
2023-01-18T08:26:10.412Z,13.35
2023-01-18T08:28:37.439Z,15.68
2023-01-18T08:31:17.086Z,26.13
2023-01-18T08:33:47.103Z,33.28
2023-01-18T08:36:16.583Z,22.33
2023-01-18T08:38:47.208Z,26.70
2023-01-18T08:41:14.150Z,16.00
2023-01-18T08:43:41.151Z,29.45
2023-01-18T08:46:08.168Z,21.42
2023-01-18T08:48:35.144Z,27.85
2023-01-18T08:51:03.305Z,10.80
2023-01-18T08:53:31.457Z,27.48
2023-01-18T08:55:58.420Z,18.42
2023-01-18T08:58:25.813Z,22.02
2023-01-18T09:00:53.690Z,23.17
2023-01-18T09:03:22.003Z,19.50
2023-01-18T09:05:49.663Z,21.42
2023-01-18T09:08:17.706Z,27.20
2023-01-18T09:10:45.273Z,19.08
2023-01-18T09:13:12.391Z,23.08
2023-01-18T09:15:39.496Z,24.02
2023-01-18T09:18:08.173Z,26.48
2023-01-18T09:20:36.351Z,24.25
2023-01-18T09:23:05.182Z,15.43
2023-01-18T09:25:32.171Z,15.32
2023-01-18T09:28:00.900Z,17.58
2023-01-18T09:30:27.783Z,20.70
2023-01-18T09:32:54.763Z,21.70
2023-01-18T09:35:21.617Z,16.98
2023-01-18T09:37:48.563Z,15.45
2023-01-18T09:40:18.201Z,16.35
2023-01-18T09:42:47.706Z,20.55
2023-01-18T10:18:11.397Z,22.60
2023-01-18T10:20:49.153Z,18.80
2023-01-18T10:23:24.940Z,23.40
2023-01-18T10:26:08.391Z,22.25
2023-01-18T10:28:41.385Z,18.85
2023-01-18T10:31:23.377Z,22.42
2023-01-18T10:33:56.213Z,14.45
2023-01-18T10:36:33.606Z,20.42
2023-01-18T10:39:05.479Z,11.80
2023-01-18T10:41:37.959Z,23.60
2023-01-18T10:44:05.092Z,26.52
2023-01-18T10:46:32.240Z,18.33
2023-01-18T10:48:59.364Z,17.08
2023-01-18T10:51:46.475Z,13.57
2023-01-18T10:54:27.063Z,23.48
2023-01-18T10:57:06.007Z,25.10
2023-01-18T10:59:40.909Z,19.33
2023-01-18T11:02:23.601Z,19.30
2023-01-18T11:04:58.982Z,23.77
2023-01-18T11:07:27.934Z,20.13
2023-01-18T11:09:59.411Z,14.38
2023-01-18T11:12:42.417Z,12.13
2023-01-18T11:15:15.309Z,24.05
2023-01-18T11:18:11.600Z,20.33
2023-01-18T11:20:48.181Z,19.15
2023-01-18T11:23:31.091Z,18.33
2023-01-18T11:26:01.455Z,19.58
2023-01-18T11:28:28.322Z,24.27
2023-01-18T11:31:14.941Z,21.10
2023-01-18T11:34:03.071Z,15.55
2023-01-18T11:36:48.257Z,16.65
2023-01-18T11:39:35.826Z,18.95
2023-01-18T11:42:21.748Z,27.88
2023-01-18T11:45:25.553Z,24.10
2023-01-18T11:48:38.237Z,26.15
2023-01-18T11:51:10.755Z,19.30
2023-01-18T11:54:18.906Z,13.18
2023-01-18T11:56:50.961Z,24.83
2023-01-18T11:59:29.540Z,16.92
2023-01-18T12:02:33.963Z,17.00
2023-01-18T12:05:25.742Z,16.50
2023-01-18T12:07:58.805Z,22.98
2023-01-18T12:10:30.245Z,14.73
2023-01-18T12:13:16.883Z,19.42
2023-01-18T12:15:58.905Z,20.60
2023-01-18T12:18:40.519Z,23.52
2023-01-18T12:21:14.714Z,19.58
2023-01-18T12:24:22.978Z,13.65
2023-01-18T12:26:58.195Z,20.35
2023-01-18T12:30:19.753Z,16.73
2023-01-18T12:33:13.194Z,21.88
2023-01-18T12:36:06.989Z,25.67
2023-01-18T12:38:35.960Z,16.17
2023-01-18T12:41:21.876Z,22.55
2023-01-18T12:44:30.126Z,21.15
2023-01-18T12:47:11.839Z,14.48
2023-01-18T12:49:45.710Z,19.17
2023-01-18T12:52:19.342Z,13.45
2023-01-18T12:54:56.087Z,15.07
2023-01-18T13:00:01.704Z,16.80
2023-01-18T13:02:37.474Z,20.25
2023-01-18T13:05:04.475Z,20.92
2023-01-18T13:08:01.465Z,19.65
2023-01-18T13:10:29.292Z,16.50
2023-01-18T13:12:57.959Z,15.80
2023-01-18T13:15:53.794Z,24.58
2023-01-18T13:18:42.570Z,21.20
2023-01-18T13:21:46.741Z,17.95
2023-01-18T13:24:41.406Z,20.40
2023-01-18T13:27:14.267Z,18.15
2023-01-18T13:29:42.526Z,13.77
2023-01-18T13:32:35.740Z,21.67
2023-01-18T13:35:31.097Z,26.42
2023-01-18T13:38:01.751Z,27.98
2023-01-18T13:40:42.849Z,17.98
2023-01-18T13:43:37.316Z,24.27
2023-01-18T13:46:20.771Z,25.17
2023-01-18T13:48:47.768Z,18.77
2023-01-18T13:51:42.814Z,24.27
2023-01-18T13:54:10.499Z,26.92
2023-01-18T13:56:39.734Z,13.15
2023-01-18T13:59:12.430Z,18.90
2023-01-18T14:01:44.067Z,21.65
2023-01-18T14:04:37.083Z,18.35
2023-01-18T14:07:06.534Z,23.42
2023-01-18T14:09:48.986Z,21.38
2023-01-18T14:12:16.129Z,28.08
2023-01-18T14:14:53.777Z,22.00
2023-01-18T14:17:20.959Z,28.40
2023-01-18T14:19:47.751Z,28.63
2023-01-18T14:22:33.179Z,26.83
2023-01-18T14:25:21.217Z,21.98
2023-01-18T14:28:01.680Z,19.83
2023-01-18T14:30:35.508Z,26.45
2023-01-18T14:33:23.896Z,29.75
2023-01-18T14:35:57.884Z,24.58
2023-01-18T14:38:26.085Z,22.15
2023-01-18T14:40:57.292Z,25.85
2023-01-18T14:43:35.173Z,30.33
2023-01-18T14:46:07.473Z,19.45
2023-01-18T14:48:40.079Z,22.08
2023-01-18T14:51:07.203Z,24.02
2023-01-18T14:53:46.215Z,24.08
2023-01-18T14:56:20.487Z,23.85
2023-01-18T14:59:03.264Z,30.33
2023-01-18T15:01:39.683Z,20.10
2023-01-18T15:06:49.948Z,24.10
2023-01-18T15:09:21.058Z,21.42
2023-01-18T15:11:49.644Z,25.35
2023-01-18T15:14:20.859Z,26.30
2023-01-18T15:16:50.698Z,30.38
2023-01-18T15:19:43.258Z,14.90
2023-01-18T15:22:15.979Z,25.60
2023-01-18T15:24:45.504Z,36.28
2023-01-18T15:27:18.258Z,34.60
2023-01-18T15:29:54.168Z,33.15
2023-01-18T15:32:23.713Z,14.63
2023-01-18T15:34:52.958Z,27.70
2023-01-18T15:37:32.405Z,43.28
2023-01-18T15:40:02.209Z,45.38
2023-01-18T15:42:44.366Z,26.20
2023-01-18T15:45:25.792Z,30.35
2023-01-18T15:48:14.638Z,23.60
2023-01-18T15:50:53.248Z,33.97
2023-01-18T15:53:31.799Z,22.05
2023-01-18T15:56:04.963Z,25.35
2023-01-18T15:58:43.054Z,19.42
2023-01-18T16:01:21.784Z,33.83
2023-01-18T16:03:48.769Z,26.50
2023-01-18T16:06:22.989Z,33.55
2023-01-18T16:09:12.102Z,33.00
2023-01-18T16:11:54.403Z,39.45
2023-01-18T16:14:24.908Z,40.75
2023-01-18T16:16:53.602Z,38.75
2023-01-18T16:19:23.406Z,42.15
2023-01-18T16:21:54.710Z,38.22
2023-01-18T16:24:30.920Z,34.92
2023-01-18T16:27:01.900Z,36.72
2023-01-18T16:29:30.042Z,38.28
2023-01-18T16:32:36.026Z,40.03
2023-01-18T16:35:09.968Z,34.38
2023-01-18T16:37:38.478Z,45.05
2023-01-18T16:40:06.496Z,37.25
2023-01-18T16:42:54.390Z,40.60
2023-01-18T16:45:21.674Z,28.27
2023-01-18T16:47:49.100Z,41.28
2023-01-18T16:50:16.542Z,34.40
2023-01-18T16:52:43.512Z,36.58
2023-01-18T16:55:15.195Z,30.08
2023-01-18T16:57:43.462Z,30.70
2023-01-18T17:00:17.990Z,47.90
2023-01-18T17:02:45.875Z,37.08
2023-01-18T17:05:14.109Z,42.17
2023-01-18T17:07:41.328Z,46.20
2023-01-18T17:10:34.260Z,36.65
2023-01-18T17:13:01.636Z,42.85
2023-01-18T17:15:30.894Z,46.35
2023-01-18T17:17:58.036Z,40.05
2023-01-18T17:20:26.796Z,34.95
2023-01-18T17:22:55.905Z,39.42
2023-01-18T17:25:24.064Z,45.22
2023-01-18T17:27:51.107Z,44.13
2023-01-18T17:30:21.749Z,41.63
2023-01-18T17:32:49.258Z,39.78
2023-01-18T17:35:18.233Z,35.63
2023-01-18T17:37:45.823Z,41.83
2023-01-18T17:40:22.698Z,23.92
2023-01-18T17:42:52.985Z,35.08
2023-01-18T17:45:19.907Z,34.20
2023-01-18T17:47:46.828Z,45.22
2023-01-18T17:50:21.645Z,41.58
2023-01-18T17:52:49.107Z,55.53
2023-01-18T17:55:17.841Z,38.17
2023-01-18T17:57:47.083Z,32.65
2023-01-18T18:00:16.215Z,41.45
2023-01-18T18:02:43.609Z,45.08
2023-01-18T18:05:10.981Z,37.60
2023-01-18T18:07:38.257Z,31.27
2023-01-18T18:10:05.912Z,28.88
2023-01-18T18:12:35.163Z,37.03
2023-01-18T18:15:03.112Z,26.35
2023-01-18T18:17:31.599Z,37.25
2023-01-18T18:19:58.810Z,35.95
2023-01-18T18:22:26.221Z,31.90
2023-01-18T18:24:53.807Z,44.35
2023-01-18T18:27:23.165Z,22.92
2023-01-18T18:29:50.843Z,44.33
2023-01-18T18:32:17.859Z,39.90
2023-01-18T18:34:44.841Z,39.40
2023-01-18T18:37:11.934Z,37.05
2023-01-18T18:39:39.085Z,37.65
2023-01-18T18:42:06.187Z,39.72
2023-01-18T18:44:33.179Z,31.67
2023-01-18T18:47:00.433Z,31.45
2023-01-18T18:49:28.184Z,30.58
2023-01-18T18:51:55.319Z,33.67
2023-01-18T18:54:22.607Z,39.15
2023-01-18T18:56:49.558Z,22.17
2023-01-18T18:59:16.668Z,29.77
2023-01-18T19:01:43.793Z,24.33
2023-01-18T19:04:10.796Z,31.80
2023-01-18T19:06:38.436Z,33.83
2023-01-18T19:09:05.878Z,34.25
2023-01-18T19:11:32.962Z,40.53
2023-01-18T19:14:00.134Z,28.08
2023-01-18T19:16:27.292Z,35.08
2023-01-18T19:18:54.260Z,41.53
2023-01-18T19:21:21.513Z,29.40
2023-01-18T19:23:48.461Z,38.28
2023-01-18T19:26:15.589Z,29.58
2023-01-18T19:28:42.523Z,33.60
2023-01-18T19:31:09.465Z,29.92
2023-01-18T19:33:36.892Z,32.75
2023-01-18T19:36:14.425Z,33.70
2023-01-18T19:38:46.046Z,31.85
2023-01-18T19:41:13.978Z,28.90
2023-01-18T19:43:41.898Z,25.98
2023-01-18T19:46:10.908Z,27.33
2023-01-18T19:48:39.361Z,28.75
2023-01-18T19:51:20.861Z,35.08
2023-01-18T19:53:48.428Z,26.20
2023-01-18T19:56:15.358Z,26.88
2023-01-18T19:58:42.254Z,30.00
2023-01-18T20:01:11.483Z,25.30
2023-01-18T20:03:38.723Z,21.67
2023-01-18T20:06:15.705Z,41.63
2023-01-18T20:08:42.953Z,32.75
2023-01-18T20:11:13.181Z,27.15
2023-01-18T20:13:42.828Z,20.15
2023-01-18T20:16:10.444Z,29.50
2023-01-18T20:18:40.658Z,22.20
2023-01-18T20:21:14.222Z,33.95
2023-01-18T20:23:43.816Z,23.23
2023-01-18T20:26:11.939Z,26.45
2023-01-18T20:28:39.264Z,26.08
2023-01-18T20:31:06.568Z,24.83
2023-01-18T20:33:35.390Z,26.10
2023-01-18T20:36:03.297Z,29.77
2023-01-18T20:38:30.607Z,22.77
2023-01-18T20:40:58.039Z,24.05
2023-01-18T20:43:25.028Z,29.88
2023-01-18T20:46:10.437Z,24.85
2023-01-18T20:48:38.434Z,22.52
2023-01-18T20:51:07.553Z,22.63
2023-01-18T20:53:35.042Z,32.25
2023-01-18T20:56:12.000Z,28.83
2023-01-18T20:58:51.258Z,30.13
2023-01-18T21:01:18.764Z,32.22
2023-01-18T21:03:47.529Z,31.65
2023-01-18T21:06:16.173Z,31.20
2023-01-18T21:08:43.075Z,24.35
2023-01-18T21:11:15.022Z,15.63
2023-01-18T21:13:42.019Z,29.58
2023-01-18T21:16:08.960Z,22.92
2023-01-18T21:18:37.716Z,24.20
2023-01-18T21:21:04.717Z,28.25
2023-01-18T21:23:37.979Z,26.38
2023-01-18T21:26:07.844Z,18.73
2023-01-18T21:28:35.050Z,21.33
2023-01-18T21:31:02.514Z,36.88
2023-01-18T21:33:29.718Z,23.00
2023-01-18T21:36:04.142Z,23.55
2023-01-18T21:38:31.230Z,24.55
2023-01-18T21:41:18.404Z,28.40
2023-01-18T21:44:03.985Z,18.55
2023-01-18T21:46:31.071Z,19.45
2023-01-18T21:49:02.215Z,17.45
2023-01-18T21:51:47.926Z,21.45
2023-01-18T21:54:14.965Z,30.10
2023-01-18T21:56:45.418Z,28.02
2023-01-18T21:59:13.378Z,17.63
2023-01-18T22:01:45.420Z,15.30
2023-01-18T22:04:32.979Z,19.42
2023-01-18T22:07:00.377Z,19.95
2023-01-18T22:09:29.269Z,19.50
2023-01-18T22:11:57.505Z,19.65
2023-01-18T22:14:25.852Z,25.25
2023-01-18T22:16:53.536Z,15.07
2023-01-18T22:19:20.507Z,27.23
2023-01-18T22:21:48.641Z,18.73
2023-01-18T22:24:17.081Z,19.83
2023-01-18T22:26:45.298Z,21.52
2023-01-18T22:29:13.211Z,19.45
2023-01-18T22:31:40.454Z,15.98
2023-01-18T22:34:08.204Z,23.90
2023-01-18T22:36:35.203Z,13.68
2023-01-18T22:39:02.376Z,17.00
2023-01-18T22:41:30.213Z,16.10
2023-01-18T22:43:57.550Z,16.88
2023-01-18T22:46:25.002Z,15.60
2023-01-18T22:48:52.604Z,18.48
2023-01-18T22:51:22.533Z,25.55
2023-01-18T22:53:50.447Z,21.50
2023-01-18T22:56:23.120Z,22.77
2023-01-18T22:58:50.828Z,11.70
2023-01-18T23:01:21.922Z,24.88
2023-01-18T23:03:50.345Z,18.65
2023-01-18T23:06:18.801Z,18.85
2023-01-18T23:08:47.296Z,10.35
2023-01-18T23:11:29.820Z,22.67
2023-01-18T23:14:16.642Z,21.05
2023-01-18T23:17:02.713Z,12.30
2023-01-18T23:19:31.019Z,22.77
2023-01-18T23:21:58.272Z,22.17
2023-01-18T23:24:25.578Z,20.20
2023-01-18T23:26:52.792Z,12.02
2023-01-18T23:29:20.315Z,20.08
2023-01-18T23:31:47.492Z,20.05
2023-01-18T23:34:14.735Z,20.75
2023-01-18T23:36:41.685Z,16.08
2023-01-18T23:39:27.279Z,20.30
2023-01-18T23:42:12.875Z,19.38
2023-01-18T23:44:58.437Z,29.67
2023-01-18T23:47:44.080Z,20.77
2023-01-18T23:50:30.389Z,21.90
2023-01-18T23:53:18.973Z,18.20
2023-01-18T23:55:46.234Z,22.45
2023-01-18T23:58:13.329Z,18.05
